createdAt,value
2022-08-05T00:00:16.697Z,4.8
2022-08-05T00:01:27.536Z,4.8
2022-08-05T00:02:33.559Z,4.8
2022-08-05T00:03:41.835Z,4.8
2022-08-05T00:04:52.861Z,5.4
2022-08-05T00:06:03.430Z,5.4
2022-08-05T00:07:21.934Z,5.4
2022-08-05T00:08:19.946Z,4.8
2022-08-05T00:09:24.082Z,4.8
2022-08-05T00:10:32.446Z,4.8
2022-08-05T00:11:47.291Z,5.3
2022-08-05T00:12:56.304Z,5.3
2022-08-05T00:13:57.771Z,5.3
2022-08-05T00:15:40.759Z,4.8
2022-08-05T00:16:14.714Z,4.8
2022-08-05T00:17:23.079Z,4.8
2022-08-05T00:18:31.660Z,6.2
2022-08-05T00:19:44.108Z,6.2
2022-08-05T00:20:48.818Z,6.2
2022-08-05T00:21:56.973Z,5.3
2022-08-05T00:23:12.683Z,5.3
2022-08-05T00:24:16.305Z,5.3
2022-08-05T00:25:22.295Z,4.8
2022-08-05T00:26:30.663Z,4.8
2022-08-05T00:27:39.487Z,4.8
2022-08-05T00:28:47.598Z,6
2022-08-05T00:29:56.325Z,6
2022-08-05T00:31:04.770Z,6
2022-08-05T00:32:14.859Z,5.4
2022-08-05T00:34:42.671Z,5.4
2022-08-05T00:34:43.218Z,5.4
2022-08-05T00:35:38.240Z,5.9
2022-08-05T00:37:12.138Z,5.9
2022-08-05T00:37:54.977Z,5.9
2022-08-05T00:39:03.673Z,5
2022-08-05T00:40:11.936Z,5
2022-08-05T00:41:20.319Z,5
2022-08-05T00:42:31.456Z,7.2
2022-08-05T00:43:46.779Z,7.2
2022-08-05T00:44:45.651Z,7.2
2022-08-05T00:45:54.205Z,7.9
2022-08-05T00:47:04.025Z,7.9
2022-08-05T00:48:10.936Z,7.9
2022-08-05T00:49:19.518Z,4.6
2022-08-05T00:50:27.900Z,4.6
2022-08-05T00:51:50.150Z,4.6
2022-08-05T00:52:45.359Z,6.8
2022-08-05T00:54:01.505Z,6.8
2022-08-05T00:55:01.619Z,6.8
2022-08-05T00:56:10.199Z,6.7
2022-08-05T00:57:21.169Z,6.7
2022-08-05T00:58:27.305Z,6.7
2022-08-05T00:59:44.487Z,5.3
2022-08-05T01:00:43.926Z,5.3
2022-08-05T01:01:52.335Z,5.3
2022-08-05T01:03:00.860Z,6.4
2022-08-05T01:04:14.024Z,6.4
2022-08-05T01:05:17.615Z,6.4
2022-08-05T01:06:26.614Z,5.7
2022-08-05T01:07:34.589Z,5.7
2022-08-05T01:08:44.071Z,5.7
2022-08-05T01:09:55.637Z,4.8
2022-08-05T01:10:59.912Z,4.8
2022-08-05T01:12:09.444Z,4.8
2022-08-05T01:13:19.556Z,4.9
2022-08-05T01:14:28.174Z,4.9
2022-08-05T01:15:35.954Z,4.9
2022-08-05T01:16:44.184Z,4
2022-08-05T01:17:53.596Z,4
2022-08-05T01:18:58.910Z,4
2022-08-05T01:20:07.472Z,4.6
2022-08-05T01:21:22.698Z,4.6
2022-08-05T01:22:24.574Z,4.6
2022-08-05T01:23:34.682Z,5.1
2022-08-05T01:24:41.143Z,5.1
2022-08-05T01:25:50.216Z,5.1
2022-08-05T01:26:58.076Z,4.1
2022-08-05T01:28:06.451Z,4.1
2022-08-05T01:29:14.818Z,4.1
2022-08-05T01:30:34.369Z,5.4
2022-08-05T01:31:32.680Z,5.4
2022-08-05T01:32:41.063Z,5.4
2022-08-05T01:33:51.927Z,3.9
2022-08-05T01:34:57.999Z,3.9
2022-08-05T01:36:06.372Z,3.9
2022-08-05T01:37:18.194Z,4.5
2022-08-05T01:38:24.945Z,4.5
2022-08-05T01:39:45.568Z,4.5
2022-08-05T01:40:40.231Z,5.4
2022-08-05T01:41:48.609Z,5.4
2022-08-05T01:42:56.994Z,5.4
2022-08-05T01:44:05.582Z,5.3
2022-08-05T01:45:13.958Z,5.3
2022-08-05T01:46:41.840Z,5.3
2022-08-05T01:47:38.650Z,3.8
2022-08-05T01:48:39.289Z,3.8
2022-08-05T01:50:00.729Z,3.8
2022-08-05T01:50:56.231Z,4.2
2022-08-05T01:52:12.456Z,4.2
2022-08-05T01:53:12.986Z,4.2
2022-08-05T01:54:23.708Z,4.8
2022-08-05T01:55:29.933Z,4.8
2022-08-05T01:58:08.394Z,4.3
2022-08-05T01:58:08.898Z,4.8
2022-08-05T01:58:55.247Z,4.3
2022-08-05T02:00:03.613Z,4.3
2022-08-05T02:01:12.187Z,4
2022-08-05T02:02:20.609Z,4
2022-08-05T02:03:32.188Z,4
2022-08-05T02:04:37.501Z,5
2022-08-05T02:05:45.872Z,5
2022-08-05T02:06:54.235Z,5
2022-08-05T02:08:02.832Z,4
2022-08-05T02:09:11.200Z,4
2022-08-05T02:10:19.556Z,4
2022-08-05T02:11:32.690Z,5.5
2022-08-05T02:12:36.492Z,5.5
2022-08-05T02:13:48.854Z,5.5
2022-08-05T02:14:53.430Z,3.8
2022-08-05T02:16:01.815Z,3.8
2022-08-05T02:17:16.918Z,3.8
2022-08-05T02:18:29.073Z,4.9
2022-08-05T02:19:27.271Z,4.9
2022-08-05T02:20:39.012Z,4.9
2022-08-05T02:21:46.737Z,6.7
2022-08-05T02:22:52.427Z,6.7
2022-08-05T02:24:00.788Z,6.7
2022-08-05T02:25:09.373Z,4.4
2022-08-05T02:26:17.725Z,4.4
2022-08-05T02:27:29.831Z,4.4
2022-08-05T02:28:37.948Z,5.8
2022-08-05T02:29:59.338Z,5.8
2022-08-05T02:30:51.925Z,5.8
2022-08-05T02:32:00.018Z,7.1
2022-08-05T02:33:08.380Z,7.1
2022-08-05T02:34:16.750Z,7.1
2022-08-05T02:35:28.397Z,5.7
2022-08-05T02:36:33.694Z,5.7
2022-08-05T02:37:42.051Z,5.7
2022-08-05T02:38:53.067Z,4.7
2022-08-05T02:39:59.000Z,4.7
2022-08-05T02:41:14.851Z,4.7
2022-08-05T02:42:22.540Z,5.4
2022-08-05T02:43:24.313Z,5.4
2022-08-05T02:44:32.683Z,5.4
2022-08-05T02:45:51.342Z,5.7
2022-08-05T02:46:53.625Z,5.7
2022-08-05T02:47:58.783Z,5.7
2022-08-05T02:49:06.574Z,4.4
2022-08-05T02:50:14.953Z,4.4
2022-08-05T02:51:28.364Z,4.4
2022-08-05T02:52:31.921Z,4.4
2022-08-05T02:53:40.449Z,4.4
2022-08-05T02:54:50.836Z,4.4
2022-08-05T02:55:59.798Z,4.4
2022-08-05T02:57:09.943Z,4.4
2022-08-05T02:58:14.145Z,4.4
2022-08-05T02:59:26.880Z,4.1
2022-08-05T03:00:31.084Z,4.1
2022-08-05T03:01:39.503Z,4.1
2022-08-05T03:02:48.034Z,3.9
2022-08-05T03:04:01.965Z,3.9
2022-08-05T03:05:04.766Z,3.9
2022-08-05T03:06:52.864Z,3.7
2022-08-05T03:07:40.344Z,3.7
2022-08-05T03:08:30.203Z,3.7
2022-08-05T03:09:43.392Z,4.5
2022-08-05T03:11:01.360Z,4.5
2022-08-05T03:11:58.122Z,4.5
2022-08-05T03:14:04.315Z,4.3
2022-08-05T03:15:12.681Z,4.3
2022-08-05T03:16:21.279Z,5.3
2022-08-05T03:17:29.644Z,5.3
2022-08-05T03:18:38.018Z,5.3
2022-08-05T03:19:46.600Z,4.1
2022-08-05T03:20:54.997Z,4.1
2022-08-05T03:22:04.819Z,4.1
2022-08-05T03:23:11.985Z,4.2
2022-08-05T03:24:23.721Z,4.2
2022-08-05T03:25:34.194Z,4.2
2022-08-05T03:26:37.327Z,3.7
2022-08-05T03:27:59.163Z,3.7
2022-08-05T03:28:54.067Z,3.7
2022-08-05T03:30:07.905Z,4.3
2022-08-05T03:31:11.033Z,4.3
2022-08-05T03:32:19.589Z,4.3
2022-08-05T03:33:32.346Z,3.3
2022-08-05T03:34:36.388Z,3.3
2022-08-05T03:35:44.750Z,3.3
2022-08-05T03:36:53.325Z,3.5
2022-08-05T03:38:01.707Z,3.5
2022-08-05T03:39:13.227Z,3.5
2022-08-05T03:40:24.545Z,3.6
2022-08-05T03:41:27.016Z,3.6
2022-08-05T03:42:41.701Z,3.6
2022-08-05T03:43:59.492Z,3.2
2022-08-05T03:44:52.350Z,3.2
2022-08-05T03:46:00.716Z,3.2
2022-08-05T03:47:09.326Z,4.7
2022-08-05T03:48:19.780Z,4.7
2022-08-05T03:49:30.921Z,4.7
2022-08-05T03:50:34.658Z,3.1
2022-08-05T03:52:36.360Z,3.1
2022-08-05T03:54:58.786Z,3.1
2022-08-05T03:55:07.030Z,3.5
2022-08-05T03:55:54.424Z,3.5
2022-08-05T03:56:18.166Z,3.5
2022-08-05T03:57:28.962Z,3.5
2022-08-05T03:58:33.733Z,3.5
2022-08-05T03:59:47.430Z,3.5
2022-08-05T04:00:51.356Z,3.9
2022-08-05T04:01:59.334Z,3.9
2022-08-05T04:03:07.495Z,3.9
2022-08-05T04:04:16.839Z,3.2
2022-08-05T04:05:24.434Z,3.2
2022-08-05T04:06:32.817Z,3.2
2022-08-05T04:07:53.152Z,2.6
2022-08-05T04:08:49.756Z,2.6
2022-08-05T04:09:58.126Z,2.6
2022-08-05T04:11:06.706Z,3.2
2022-08-05T04:12:23.472Z,3.2
2022-08-05T04:13:23.481Z,3.2
2022-08-05T04:14:32.064Z,3.1
2022-08-05T04:15:52.572Z,3.1
2022-08-05T04:16:48.849Z,3.1
2022-08-05T04:17:59.922Z,3.4
2022-08-05T04:19:10.462Z,3.4
2022-08-05T04:20:14.258Z,3.4
2022-08-05T04:22:04.967Z,3.8
2022-08-05T04:22:31.235Z,3.8
2022-08-05T04:23:57.414Z,3.8
2022-08-05T04:24:52.774Z,4
2022-08-05T04:26:00.802Z,4
2022-08-05T04:27:04.973Z,4
2022-08-05T04:28:13.712Z,4.4
2022-08-05T04:29:22.032Z,4.4
2022-08-05T04:30:30.401Z,4.4
2022-08-05T04:31:39.501Z,5.7
2022-08-05T04:32:47.406Z,5.7
2022-08-05T04:34:19.545Z,5.7
2022-08-05T04:35:04.713Z,3.9
2022-08-05T04:36:16.026Z,3.9
2022-08-05T04:37:21.140Z,3.9
2022-08-05T04:38:39.403Z,4.9
2022-08-05T04:39:38.064Z,4.9
2022-08-05T04:40:47.936Z,4.9
2022-08-05T04:41:55.301Z,7.4
2022-08-05T04:43:03.380Z,7.4
2022-08-05T04:44:11.668Z,7.4
2022-08-05T04:45:23.134Z,5.7
2022-08-05T04:46:28.760Z,5.7
2022-08-05T04:47:38.508Z,5.7
2022-08-05T04:48:45.581Z,4.2
2022-08-05T04:50:02.266Z,4.2
2022-08-05T04:51:03.856Z,4.2
2022-08-05T04:52:10.897Z,6.6
2022-08-05T04:53:19.245Z,6.6
2022-08-05T04:54:27.628Z,6.6
2022-08-05T04:55:49.859Z,6.1
2022-08-05T04:56:44.572Z,6.1
2022-08-05T04:57:54.178Z,6.1
2022-08-05T04:59:01.513Z,3.7
2022-08-05T05:00:09.872Z,3.7
2022-08-05T05:01:33.867Z,3.7
2022-08-05T05:02:35.805Z,5.3
2022-08-05T05:03:41.740Z,5.3
2022-08-05T05:04:43.787Z,5.3
2022-08-05T05:06:35.785Z,6.4
2022-08-05T05:07:00.500Z,6.4
2022-08-05T05:08:14.261Z,6.4
2022-08-05T05:09:17.580Z,4.3
2022-08-05T05:10:25.794Z,4.3
2022-08-05T05:11:42.060Z,4.3
2022-08-05T05:12:42.831Z,7.7
2022-08-05T05:13:51.183Z,7.7
2022-08-05T05:14:59.541Z,7.7
2022-08-05T05:16:08.120Z,4.2
2022-08-05T05:17:19.968Z,4.2
2022-08-05T05:18:28.555Z,4.2
2022-08-05T05:19:36.245Z,5
2022-08-05T05:20:42.090Z,5
2022-08-05T05:21:50.456Z,5
2022-08-05T05:22:59.038Z,7.4
2022-08-05T05:24:08.800Z,7.4
2022-08-05T05:25:16.213Z,7.4
2022-08-05T05:26:28.196Z,4.3
2022-08-05T05:27:41.980Z,4.3
2022-08-05T05:28:42.649Z,4.3
2022-08-05T05:30:03.685Z,4.7
2022-08-05T05:30:58.062Z,4.7
2022-08-05T05:32:06.442Z,4.7
2022-08-05T05:33:16.332Z,7.3
2022-08-05T05:34:26.851Z,7.3
2022-08-05T05:35:34.552Z,7.3
2022-08-05T05:36:40.328Z,5.8
2022-08-05T05:37:59.219Z,5.8
2022-08-05T05:38:57.220Z,5.8
2022-08-05T05:40:05.620Z,5.9
2022-08-05T05:41:14.014Z,5.9
2022-08-05T05:42:22.382Z,5.9
2022-08-05T05:43:56.568Z,6.9
2022-08-05T05:44:43.057Z,6.9
2022-08-05T05:45:48.349Z,6.9
2022-08-05T05:46:56.315Z,8.6
2022-08-05T05:48:05.978Z,8.6
2022-08-05T05:49:22.784Z,8.6
2022-08-05T05:50:21.620Z,5.2
2022-08-05T05:51:29.991Z,5.2
2022-08-05T05:52:40.632Z,5.2
2022-08-05T05:53:54.757Z,4.3
2022-08-05T05:54:55.303Z,4.3
2022-08-05T05:56:03.688Z,4.3
2022-08-05T05:57:17.195Z,6.3
2022-08-05T05:58:20.643Z,6.3
2022-08-05T05:59:29.007Z,6.3
2022-08-05T06:00:37.594Z,5.2
2022-08-05T06:01:57.422Z,5.2
2022-08-05T06:02:54.356Z,5.2
2022-08-05T06:04:03.773Z,6.3
2022-08-05T06:05:16.824Z,6.3
2022-08-05T06:06:19.663Z,6.3
2022-08-05T06:07:41.423Z,5
2022-08-05T06:08:36.583Z,5
2022-08-05T06:09:51.294Z,5
2022-08-05T06:10:53.544Z,6.3
2022-08-05T06:12:02.611Z,6.3
2022-08-05T06:13:10.297Z,6.3
2022-08-05T06:14:18.877Z,5.5
2022-08-05T06:16:27.758Z,5.5
2022-08-05T06:16:37.063Z,5.5
2022-08-05T06:17:52.538Z,5.9
2022-08-05T06:18:53.600Z,5.9
2022-08-05T06:20:00.927Z,5.9
2022-08-05T06:21:16.709Z,6.6
2022-08-05T06:22:17.889Z,6.6
2022-08-05T06:23:26.266Z,6.6
2022-08-05T06:24:34.930Z,4.8
2022-08-05T06:26:00.028Z,4.8
2022-08-05T06:26:52.577Z,4.8
2022-08-05T06:28:09.844Z,4.2
2022-08-05T06:29:24.921Z,4.2
2022-08-05T06:30:18.030Z,4.2
2022-08-05T06:31:30.365Z,4.5
2022-08-05T06:32:33.846Z,4.5
2022-08-05T06:34:06.532Z,4.5
2022-08-05T06:34:53.385Z,3.8
2022-08-05T06:36:04.447Z,3.8
2022-08-05T06:37:07.521Z,3.8
2022-08-05T06:38:16.145Z,3.7
2022-08-05T06:39:24.634Z,3.7
2022-08-05T06:40:32.971Z,3.7
2022-08-05T06:41:41.419Z,5.6
2022-08-05T06:42:51.806Z,5.6
2022-08-05T06:44:00.439Z,5.6
2022-08-05T06:45:08.265Z,5.6
2022-08-05T06:46:15.085Z,5.6
2022-08-05T06:47:30.165Z,5.6
2022-08-05T06:48:37.463Z,3.7
2022-08-05T06:50:00.943Z,3.7
2022-08-05T06:50:49.840Z,3.7
2022-08-05T06:51:57.330Z,4.5
2022-08-05T06:53:11.808Z,4.5
2022-08-05T06:54:18.322Z,4.5
2022-08-05T06:55:22.655Z,3.6
2022-08-05T06:56:33.439Z,3.6
2022-08-05T06:57:57.050Z,3.6
2022-08-05T06:58:47.968Z,5.5
2022-08-05T06:59:58.280Z,5.5
2022-08-05T07:01:04.802Z,5.5
2022-08-05T07:02:13.286Z,5.3
2022-08-05T07:03:21.652Z,5.3
2022-08-05T07:04:30.013Z,5.3
2022-08-05T07:05:41.083Z,4.6
2022-08-05T07:06:46.969Z,4.6
2022-08-05T07:07:55.336Z,4.6
2022-08-05T07:09:04.623Z,6.5
2022-08-05T07:10:14.851Z,6.5
2022-08-05T07:11:22.034Z,6.5
2022-08-05T07:12:29.241Z,4.9
2022-08-05T07:13:52.514Z,4.9
2022-08-05T07:14:45.972Z,4.9
2022-08-05T07:16:01.392Z,5
2022-08-05T07:17:58.156Z,5
2022-08-05T07:18:12.637Z,5
2022-08-05T07:19:36.457Z,4.5
2022-08-05T07:20:33.729Z,4.5
2022-08-05T07:21:59.180Z,4.5
2022-08-05T07:22:45.696Z,6.3
2022-08-05T07:23:53.612Z,6.3
2022-08-05T07:25:09.688Z,6.3
2022-08-05T07:26:10.564Z,4.1
2022-08-05T07:27:18.937Z,4.1
2022-08-05T07:28:27.306Z,4.1
2022-08-05T07:30:25.594Z,4.4
2022-08-05T07:30:44.274Z,4.4
2022-08-05T07:31:54.329Z,4.4
2022-08-05T07:33:01.226Z,4.1
2022-08-05T07:34:09.585Z,4.1
2022-08-05T07:35:56.186Z,4.1
2022-08-05T07:36:26.535Z,4.5
2022-08-05T07:37:36.138Z,4.5
2022-08-05T07:38:44.061Z,4.5
2022-08-05T07:40:04.938Z,3.9
2022-08-05T07:41:04.708Z,3.9
2022-08-05T07:42:14.828Z,3.9
2022-08-05T07:43:20.570Z,5
2022-08-05T07:44:25.643Z,5
2022-08-05T07:45:43.430Z,5
2022-08-05T07:46:45.918Z,3.5
2022-08-05T07:47:51.095Z,3.5
2022-08-05T07:49:01.378Z,3.5
2022-08-05T07:50:08.090Z,4.5
2022-08-05T07:51:23.200Z,4.5
2022-08-05T07:52:24.856Z,4.5
2022-08-05T07:53:36.730Z,3.7
2022-08-05T07:54:47.718Z,3.7
2022-08-05T07:56:05.018Z,3.7
2022-08-05T07:57:15.172Z,3.5
2022-08-05T07:58:07.309Z,3.5
2022-08-05T07:59:15.523Z,3.5
2022-08-05T08:00:24.143Z,4.7
2022-08-05T08:01:32.662Z,4.7
2022-08-05T08:03:14.488Z,4.7
2022-08-05T08:03:49.496Z,3.9
2022-08-05T08:04:57.875Z,3.9
2022-08-05T08:06:06.250Z,3.9
2022-08-05T08:07:14.893Z,4.8
2022-08-05T08:08:23.272Z,4.8
2022-08-05T08:09:31.653Z,4.8
2022-08-05T08:10:40.226Z,3.8
2022-08-05T08:11:54.346Z,3.8
2022-08-05T08:12:58.473Z,3.8
2022-08-05T08:14:05.640Z,3.3
2022-08-05T08:15:15.379Z,3.3
2022-08-05T08:16:36.022Z,3.3
2022-08-05T08:17:31.009Z,4.4
2022-08-05T08:18:39.388Z,4.4
2022-08-05T08:20:23.174Z,4.4
2022-08-05T08:21:00.697Z,4
2022-08-05T08:22:04.761Z,4
2022-08-05T08:24:00.691Z,4
2022-08-05T08:24:21.710Z,3.1
2022-08-05T08:25:58.966Z,3.1
2022-08-05T08:26:38.490Z,3.1
2022-08-05T08:27:47.383Z,2.8
2022-08-05T08:28:59.704Z,2.8
2022-08-05T08:30:20.526Z,2.8
2022-08-05T08:31:14.623Z,2.7
2022-08-05T08:32:21.513Z,2.7
2022-08-05T08:33:29.165Z,2.7
2022-08-05T08:34:37.764Z,2.5
2022-08-05T08:35:52.545Z,2.5
2022-08-05T08:36:56.726Z,2.5
2022-08-05T08:38:03.119Z,3.2
2022-08-05T08:39:15.327Z,3.2
2022-08-05T08:40:19.885Z,3.2
2022-08-05T08:41:50.476Z,4.6
2022-08-05T08:42:46.906Z,4.6
2022-08-05T08:44:56.580Z,4.6
2022-08-05T08:45:21.560Z,3.1
2022-08-05T08:46:02.173Z,3.1
2022-08-05T08:47:22.129Z,3.1
2022-08-05T08:48:23.957Z,3.8
2022-08-05T08:50:05.634Z,3.8
2022-08-05T08:50:52.974Z,3.8
2022-08-05T08:52:02.695Z,3.8
2022-08-05T08:52:53.187Z,3.8
2022-08-05T08:54:01.250Z,3.8
2022-08-05T08:55:11.111Z,4.5
2022-08-05T08:56:18.255Z,4.5
2022-08-05T08:57:29.281Z,4.5
2022-08-05T08:58:37.264Z,3.4
2022-08-05T08:59:47.325Z,3.4
2022-08-05T09:00:51.987Z,3.4
2022-08-05T09:02:01.009Z,2.9
2022-08-05T09:03:08.916Z,2.9
2022-08-05T09:04:17.293Z,2.9
2022-08-05T09:05:38.047Z,2.9
2022-08-05T09:06:36.241Z,2.9
2022-08-05T09:07:57.173Z,2.9
2022-08-05T09:08:51.285Z,3.2
2022-08-05T09:09:59.672Z,3.2
2022-08-05T09:11:08.057Z,3.2
2022-08-05T09:12:20.310Z,2.9
2022-08-05T09:13:25.411Z,2.9
2022-08-05T09:14:55.283Z,2.9
2022-08-05T09:15:42.379Z,2.9
2022-08-05T09:16:50.806Z,2.9
2022-08-05T09:17:59.165Z,2.9
2022-08-05T09:19:07.770Z,3.1
2022-08-05T09:20:20.782Z,3.1
2022-08-05T09:22:18.011Z,3.1
2022-08-05T09:22:33.356Z,3.4
2022-08-05T09:23:43.493Z,3.4
2022-08-05T09:24:49.862Z,3.4
2022-08-05T09:26:00.616Z,4.6
2022-08-05T09:27:06.893Z,4.6
2022-08-05T09:28:15.274Z,4.6
2022-08-05T09:29:30.805Z,4.9
2022-08-05T09:30:32.248Z,4.9
2022-08-05T09:32:39.435Z,4.9
2022-08-05T09:32:49.248Z,6
2022-08-05T09:33:57.621Z,6
2022-08-05T09:35:06.001Z,6
2022-08-05T09:36:16.320Z,3.1
2022-08-05T09:38:13.194Z,3.1
2022-08-05T09:38:31.339Z,3.1
2022-08-05T09:39:41.745Z,3.9
2022-08-05T09:40:52.786Z,3.9
2022-08-05T09:41:56.677Z,3.9
2022-08-05T09:43:05.269Z,2.9
2022-08-05T09:44:13.670Z,2.9
2022-08-05T09:46:05.695Z,2.9
2022-08-05T09:46:30.616Z,3.1
2022-08-05T09:47:48.953Z,3.1
2022-08-05T09:48:55.270Z,3.1
2022-08-05T09:50:01.856Z,3.2
2022-08-05T09:51:04.328Z,3.2
2022-08-05T09:52:12.698Z,3.2
2022-08-05T09:53:23.253Z,2.7
2022-08-05T09:54:29.710Z,2.7
2022-08-05T09:55:55.805Z,2.7
2022-08-05T09:56:51.670Z,3
2022-08-05T09:57:58.781Z,3
2022-08-05T09:59:04.146Z,3
2022-08-05T10:00:12.104Z,3.5
2022-08-05T10:01:22.762Z,3.5
2022-08-05T10:02:28.884Z,3.5
2022-08-05T10:03:38.808Z,2.5
2022-08-05T10:04:45.801Z,2.5
2022-08-05T10:05:54.185Z,2.5
2022-08-05T10:07:14.190Z,2.3
2022-08-05T10:08:35.560Z,2.3
2022-08-05T10:09:22.594Z,2.3
2022-08-05T10:10:32.365Z,2.5
2022-08-05T10:11:36.472Z,2.5
2022-08-05T10:12:49.157Z,2.5
2022-08-05T10:13:54.452Z,2.9
2022-08-05T10:15:01.814Z,2.9
2022-08-05T10:16:10.177Z,2.9
2022-08-05T10:17:38.156Z,2.3
2022-08-05T10:18:27.109Z,2.3
2022-08-05T10:20:03.432Z,2.3
2022-08-05T10:20:44.270Z,2
2022-08-05T10:21:52.426Z,2
2022-08-05T10:23:00.807Z,2
2022-08-05T10:24:10.627Z,3.5
2022-08-05T10:25:17.764Z,3.5
2022-08-05T10:26:31.782Z,3.5
2022-08-05T10:27:38.802Z,2.6
2022-08-05T10:28:43.127Z,2.6
2022-08-05T10:30:07.327Z,2.6
2022-08-05T10:32:49.761Z,1.8
2022-08-05T10:32:51.275Z,1.8
2022-08-05T10:33:16.821Z,1.8
2022-08-05T10:34:25.702Z,3.3
2022-08-05T10:35:40.311Z,3.3
2022-08-05T10:36:42.145Z,3.3
2022-08-05T10:37:50.732Z,2.4
2022-08-05T10:39:58.883Z,2.4
2022-08-05T10:40:44.864Z,2.4
2022-08-05T10:41:52.422Z,1.6
2022-08-05T10:43:00.788Z,1.6
2022-08-05T10:44:09.374Z,1.6
2022-08-05T10:45:21.689Z,1.5
2022-08-05T10:46:28.734Z,1.5
2022-08-05T10:47:37.826Z,1.5
2022-08-05T10:48:53.209Z,1.5
2022-08-05T10:50:21.010Z,1.5
2022-08-05T10:51:03.323Z,1.5
2022-08-05T10:52:11.737Z,2.3
2022-08-05T10:53:20.094Z,2.3
2022-08-05T10:54:30.004Z,2.3
2022-08-05T10:55:38.670Z,2.1
2022-08-05T10:56:45.430Z,2.1
2022-08-05T10:57:53.802Z,2.1
2022-08-05T10:59:07.396Z,1.9
2022-08-05T11:00:18.432Z,1.9
2022-08-05T11:01:28.195Z,1.9
2022-08-05T11:02:35.062Z,2.1
2022-08-05T11:03:38.896Z,2.1
2022-08-05T11:04:47.193Z,2.1
2022-08-05T11:05:55.763Z,2.2
2022-08-05T11:07:04.138Z,2.2
2022-08-05T11:08:33.978Z,2.2
2022-08-05T11:09:24.348Z,2.3
2022-08-05T11:10:29.470Z,2.3
2022-08-05T11:11:44.955Z,2.3
2022-08-05T11:12:50.630Z,1.7
2022-08-05T11:13:58.188Z,1.7
2022-08-05T11:15:11.981Z,1.7
2022-08-05T11:16:12.791Z,4.2
2022-08-05T11:17:58.349Z,4.2
2022-08-05T11:18:29.899Z,4.2
2022-08-05T11:20:11.649Z,2.1
2022-08-05T11:20:46.510Z,2.1
2022-08-05T11:21:54.888Z,2.1
2022-08-05T11:23:06.076Z,2.2
2022-08-05T11:24:29.895Z,2.2
2022-08-05T11:26:03.870Z,2.2
2022-08-05T11:26:32.730Z,2.8
2022-08-05T11:27:51.596Z,2.8
2022-08-05T11:28:45.598Z,2.8
2022-08-05T11:29:54.197Z,2.1
2022-08-05T11:31:06.363Z,2.1
2022-08-05T11:32:11.046Z,2.1
2022-08-05T11:33:20.934Z,3
2022-08-05T11:34:28.020Z,3
2022-08-05T11:35:36.382Z,3
2022-08-05T11:36:44.966Z,1.5
2022-08-05T11:38:26.052Z,1.5
2022-08-05T11:39:01.848Z,1.5
2022-08-05T11:40:10.282Z,1.9
2022-08-05T11:41:36.942Z,1.9
2022-08-05T11:42:27.886Z,1.9
2022-08-05T11:44:00.830Z,1.5
2022-08-05T11:44:53.581Z,1.5
2022-08-05T11:46:15.882Z,1.5
2022-08-05T11:47:10.030Z,1.4
2022-08-05T11:48:11.556Z,1.4
2022-08-05T11:49:18.099Z,1.4
2022-08-05T11:50:26.677Z,1.9
2022-08-05T11:51:43.496Z,1.9
2022-08-05T11:52:43.815Z,1.9
2022-08-05T11:53:52.023Z,2.8
2022-08-05T11:55:07.021Z,2.8
2022-08-05T11:56:08.775Z,2.8
2022-08-05T11:57:24.619Z,1.9
2022-08-05T11:58:25.753Z,1.9
2022-08-05T11:59:41.332Z,1.9
2022-08-05T12:00:44.086Z,3.7
2022-08-05T12:01:51.084Z,3.7
2022-08-05T12:02:59.471Z,3.7
2022-08-05T12:04:08.061Z,2.4
2022-08-05T12:05:18.193Z,2.4
2022-08-05T12:06:24.791Z,2.4
2022-08-05T12:08:03.017Z,2.5
2022-08-05T12:08:47.905Z,2.5
2022-08-05T12:09:53.105Z,2.5
2022-08-05T12:10:58.717Z,2.2
2022-08-05T12:12:07.090Z,2.2
2022-08-05T12:13:17.506Z,2.2
2022-08-05T12:14:24.206Z,2.1
2022-08-05T12:15:36.024Z,2.1
2022-08-05T12:16:40.800Z,2.1
2022-08-05T12:18:03.549Z,4.9
2022-08-05T12:18:57.968Z,4.9
2022-08-05T12:20:16.594Z,4.9
2022-08-05T12:21:15.579Z,3
2022-08-05T12:22:23.965Z,3
2022-08-05T12:23:32.352Z,3
2022-08-05T12:24:40.916Z,3
2022-08-05T12:27:21.438Z,3
2022-08-05T12:28:25.725Z,2
2022-08-05T12:29:38.120Z,2
2022-08-05T12:30:45.678Z,2
2022-08-05T12:31:53.299Z,2.9
2022-08-05T12:33:06.853Z,2.9
2022-08-05T12:34:08.063Z,2.9
2022-08-05T12:35:21.460Z,3
2022-08-05T12:36:26.401Z,3
2022-08-05T12:37:34.732Z,3
2022-08-05T12:38:45.055Z,2
2022-08-05T12:39:53.886Z,2
2022-08-05T12:41:01.891Z,2
2022-08-05T12:42:10.536Z,2.7
2022-08-05T12:43:20.506Z,2.7
2022-08-05T12:44:33.132Z,2.7
2022-08-05T12:45:42.821Z,2
2022-08-05T12:46:55.575Z,2
2022-08-05T12:48:32.424Z,2
2022-08-05T12:50:02.670Z,2.1
2022-08-05T12:50:45.146Z,2.1
2022-08-05T12:52:11.347Z,2.1
2022-08-05T12:53:02.472Z,2.9
2022-08-05T12:54:14.669Z,2.9
2022-08-05T12:55:21.899Z,2.9
2022-08-05T12:56:34.731Z,3.2
2022-08-05T12:58:38.116Z,3.2
2022-08-05T12:58:52.803Z,3.2
2022-08-05T13:00:09.139Z,2.8
2022-08-05T13:01:59.378Z,2.8
2022-08-05T13:02:10.642Z,2.8
2022-08-05T13:03:19.125Z,2.6
2022-08-05T13:04:27.501Z,2.6
2022-08-05T13:05:37.519Z,2.6
2022-08-05T13:06:44.876Z,3.4
2022-08-05T13:07:57.874Z,3.4
2022-08-05T13:09:01.675Z,3.4
2022-08-05T13:10:10.363Z,2.1
2022-08-05T13:11:25.257Z,2.1
2022-08-05T13:12:28.470Z,2.1
2022-08-05T13:14:04.528Z,2.1
2022-08-05T13:14:47.057Z,2.1
2022-08-05T13:15:55.433Z,2.1
2022-08-05T13:17:04.100Z,1.7
2022-08-05T13:18:12.699Z,1.7
2022-08-05T13:19:21.623Z,1.7
2022-08-05T13:20:32.046Z,4.8
2022-08-05T13:21:47.838Z,4.8
2022-08-05T13:22:46.799Z,4.8
2022-08-05T13:23:55.396Z,3.4
2022-08-05T13:25:05.394Z,3.4
2022-08-05T13:26:13.244Z,3.4
2022-08-05T13:27:22.922Z,3
2022-08-05T13:28:34.458Z,3
2022-08-05T13:29:59.330Z,3
2022-08-05T13:30:53.244Z,2.7
2022-08-05T13:32:03.648Z,2.7
2022-08-05T13:33:08.750Z,2.7
2022-08-05T13:34:20.737Z,4.6
2022-08-05T13:35:31.215Z,4.6
2022-08-05T13:36:34.186Z,4.6
2022-08-05T13:37:42.989Z,4.1
2022-08-05T13:38:51.836Z,4.1
2022-08-05T13:40:14.908Z,4.1
2022-08-05T13:41:08.382Z,2.5
2022-08-05T13:42:16.707Z,2.5
2022-08-05T13:43:43.637Z,2.5
2022-08-05T13:44:34.704Z,2.6
2022-08-05T13:45:43.150Z,2.6
2022-08-05T13:47:02.119Z,2.6
2022-08-05T13:48:09.105Z,1.7
2022-08-05T13:49:09.993Z,1.7
2022-08-05T13:50:16.761Z,1.7
2022-08-05T13:51:24.899Z,2.4
2022-08-05T13:52:35.410Z,2.4
2022-08-05T13:53:47.633Z,2.4
2022-08-05T13:54:53.485Z,2
2022-08-05T13:56:02.154Z,2
2022-08-05T13:57:24.317Z,2
2022-08-05T13:58:35.966Z,2.4
2022-08-05T13:59:55.520Z,2.4
2022-08-05T14:00:59.347Z,2.4
2022-08-05T14:02:07.937Z,3
2022-08-05T14:03:16.374Z,3
2022-08-05T14:04:26.552Z,3
2022-08-05T14:05:48.646Z,2.2
2022-08-05T14:06:47.666Z,2.2
2022-08-05T14:07:56.767Z,2.2
2022-08-05T14:08:59.671Z,1.5
2022-08-05T14:10:08.710Z,1.5
2022-08-05T14:11:20.795Z,1.5
2022-08-05T14:12:32.347Z,1.5
2022-08-05T14:13:36.422Z,1.5
2022-08-05T14:14:45.165Z,1.5
2022-08-05T14:16:06.560Z,1.6
2022-08-05T14:17:05.680Z,1.6
2022-08-05T14:18:17.942Z,1.6
2022-08-05T14:19:27.776Z,1.9
2022-08-05T14:20:37.129Z,1.9
2022-08-05T14:22:08.347Z,1.9
2022-08-05T14:22:54.114Z,2.4
2022-08-05T14:24:02.515Z,2.4
2022-08-05T14:25:19.377Z,2.4
2022-08-05T14:26:35.410Z,2.2
2022-08-05T14:27:28.321Z,2.2
2022-08-05T14:28:36.464Z,2.2
2022-08-05T14:29:45.734Z,1.9
2022-08-05T15:04:56.670Z,0
2022-08-05T15:06:07.248Z,0
2022-08-05T15:07:21.699Z,0
2022-08-05T15:08:38.170Z,2.7
2022-08-05T15:09:52.791Z,2.7
2022-08-05T15:10:38.898Z,2.7
2022-08-05T15:11:52.131Z,3.8
2022-08-05T15:13:01.310Z,3.8
2022-08-05T15:14:04.252Z,3.8
2022-08-05T15:15:15.460Z,4.3
2022-08-05T15:16:21.228Z,4.3
2022-08-05T15:17:45.379Z,4.3
2022-08-05T15:18:38.243Z,3.2
2022-08-05T15:19:48.801Z,3.2
2022-08-05T15:20:55.069Z,3.2
2022-08-05T15:22:03.682Z,2.5
2022-08-05T15:23:12.075Z,2.5
2022-08-05T15:24:20.449Z,2.5
2022-08-05T15:25:41.592Z,3.2
2022-08-05T15:26:37.444Z,3.2
2022-08-05T15:27:52.148Z,3.2
2022-08-05T15:28:54.420Z,3.7
2022-08-05T15:30:02.804Z,3.7
2022-08-05T15:31:11.182Z,3.7
2022-08-05T15:32:19.774Z,2.4
2022-08-05T15:33:57.025Z,2.4
2022-08-05T15:34:36.532Z,2.4
2022-08-05T15:35:45.697Z,3.1
2022-08-05T15:36:53.497Z,3.1
2022-08-05T15:38:09.436Z,3.1
2022-08-05T15:40:41.952Z,2.6
2022-08-05T15:40:42.204Z,2.6
2022-08-05T15:41:27.286Z,2.6
2022-08-05T15:42:50.186Z,3.2
2022-08-05T15:43:45.283Z,3.2
2022-08-05T15:44:52.630Z,3.2
2022-08-05T15:46:01.615Z,2.7
2022-08-05T15:47:09.585Z,2.7
2022-08-05T15:48:17.960Z,2.7
2022-08-05T15:49:42.056Z,2.6
2022-08-05T15:50:34.922Z,2.6
2022-08-05T15:52:04.581Z,2.6
2022-08-05T15:52:54.868Z,2.5
2022-08-05T15:54:00.816Z,2.5
2022-08-05T15:55:08.647Z,2.5
2022-08-05T15:56:17.236Z,26.1
2022-08-05T15:57:25.812Z,26.1
2022-08-05T15:58:35.358Z,26.1
2022-08-05T15:59:42.600Z,3.3
2022-08-05T16:01:12.949Z,3.3
2022-08-05T16:01:59.559Z,3.3
2022-08-05T16:03:08.007Z,4.7
2022-08-05T16:04:16.320Z,4.7
2022-08-05T16:05:28.299Z,4.7
2022-08-05T16:06:33.282Z,3.2
2022-08-05T16:07:46.184Z,3.2
2022-08-05T16:08:50.440Z,3.2
2022-08-05T16:09:58.622Z,2.7
2022-08-05T16:11:06.992Z,2.7
2022-08-05T16:12:15.403Z,2.7
2022-08-05T16:13:24.163Z,3.1
2022-08-05T16:14:32.393Z,3.1
2022-08-05T16:15:40.773Z,3.1
2022-08-05T16:16:49.356Z,2.6
2022-08-05T16:17:58.334Z,2.6
2022-08-05T16:19:06.655Z,2.6
2022-08-05T16:20:15.253Z,3.9
2022-08-05T16:21:59.015Z,3.9
2022-08-05T16:22:34.195Z,3.9
2022-08-05T16:23:53.401Z,3.7
2022-08-05T16:24:50.971Z,3.7
2022-08-05T16:25:57.363Z,3.7
2022-08-05T16:27:07.274Z,3.7